createdAt,value
2019-01-09T00:01:26.872Z,27.57
2019-01-09T00:03:57.171Z,26.43
2019-01-09T00:06:27.914Z,25.73
2019-01-09T00:08:58.664Z,24.27
2019-01-09T00:11:29.044Z,22.67
2019-01-09T00:13:59.578Z,24.93
2019-01-09T00:16:30.000Z,25.60
2019-01-09T00:19:00.273Z,24.00
2019-01-09T00:21:30.620Z,23.40
2019-01-09T00:24:01.314Z,23.47
2019-01-09T00:26:31.724Z,26.17
2019-01-09T00:29:02.048Z,23.10
2019-01-09T00:31:32.814Z,24.00
2019-01-09T00:34:03.324Z,22.70
2019-01-09T00:36:35.209Z,23.23
2019-01-09T00:39:07.241Z,22.30
2019-01-09T00:41:37.620Z,23.67
2019-01-09T00:44:08.427Z,21.83
2019-01-09T00:46:38.741Z,22.37
2019-01-09T00:49:09.050Z,22.53
2019-01-09T00:51:41.064Z,21.10
2019-01-09T00:54:11.627Z,22.60
2019-01-09T00:56:42.218Z,21.53
2019-01-09T00:59:13.084Z,20.97
2019-01-09T01:01:49.772Z,20.73
2019-01-09T01:04:55.264Z,21.53
2019-01-09T01:08:24.503Z,21.17
2019-01-09T01:11:27.320Z,20.23
2019-01-09T01:14:37.478Z,19.40
2019-01-09T01:17:44.121Z,19.67
2019-01-09T01:20:43.995Z,19.70
2019-01-09T01:24:08.700Z,21.60
2019-01-09T01:26:54.336Z,22.33
2019-01-09T01:30:00.646Z,19.67
2019-01-09T01:33:01.778Z,20.73
2019-01-09T01:36:27.030Z,22.20
2019-01-09T01:39:53.122Z,20.70
2019-01-09T01:43:01.490Z,20.90
2019-01-09T01:45:49.211Z,19.90
2019-01-09T01:49:18.811Z,20.00
2019-01-09T01:52:33.330Z,20.40
2019-01-09T01:55:34.903Z,20.30
2019-01-09T01:58:49.991Z,21.00
2019-01-09T02:01:47.070Z,19.03
2019-01-09T02:04:42.742Z,19.07
2019-01-09T02:07:56.070Z,19.83
2019-01-09T02:11:22.826Z,20.00
2019-01-09T02:14:43.500Z,19.37
2019-01-09T02:17:57.145Z,18.67
2019-01-09T02:20:59.525Z,20.27
2019-01-09T02:24:17.027Z,19.37
2019-01-09T02:27:24.650Z,21.23
2019-01-09T02:30:31.580Z,19.77
2019-01-09T02:33:02.298Z,18.33
2019-01-09T02:35:32.969Z,19.73
2019-01-09T02:38:03.559Z,20.77
2019-01-09T02:40:33.877Z,20.57
2019-01-09T02:43:04.565Z,21.07
2019-01-09T02:45:35.153Z,20.20
2019-01-09T02:48:05.433Z,19.87
2019-01-09T02:50:36.163Z,26.20
2019-01-09T02:53:06.611Z,23.97
2019-01-09T02:55:36.943Z,21.27
2019-01-09T02:58:08.682Z,21.50
2019-01-09T03:00:39.042Z,21.33
2019-01-09T03:03:09.809Z,20.57
2019-01-09T03:05:40.143Z,19.73
2019-01-09T03:08:10.435Z,20.03
2019-01-09T03:10:41.136Z,19.90
2019-01-09T03:13:11.577Z,20.57
2019-01-09T03:15:42.078Z,22.17
2019-01-09T03:18:12.453Z,21.53
2019-01-09T03:20:43.057Z,21.40
2019-01-09T03:23:13.378Z,21.57
2019-01-09T03:25:44.194Z,21.83
2019-01-09T03:28:14.844Z,21.10
2019-01-09T03:30:46.441Z,22.07
2019-01-09T03:33:16.727Z,20.90
2019-01-09T03:35:47.279Z,20.60
2019-01-09T03:38:17.646Z,21.00
2019-01-09T03:40:48.380Z,20.43
2019-01-09T03:43:18.648Z,19.23
2019-01-09T03:45:49.078Z,19.83
2019-01-09T03:48:19.435Z,20.87
2019-01-09T03:50:49.785Z,21.03
2019-01-09T03:53:20.223Z,20.03
2019-01-09T03:55:50.813Z,20.33
2019-01-09T03:58:21.108Z,20.77
2019-01-09T04:00:51.460Z,19.43
2019-01-09T04:03:24.230Z,20.23
2019-01-09T04:05:54.317Z,19.43
2019-01-09T04:08:25.108Z,18.67
2019-01-09T04:10:55.423Z,21.13
2019-01-09T04:13:25.863Z,19.60
2019-01-09T04:15:56.459Z,18.63
2019-01-09T04:18:26.785Z,20.20
2019-01-09T04:20:57.439Z,18.53
2019-01-09T04:23:28.129Z,18.63
2019-01-09T04:25:58.723Z,18.87
2019-01-09T04:28:29.050Z,18.40
2019-01-09T04:31:01.019Z,18.43
2019-01-09T04:33:32.539Z,22.20
2019-01-09T04:36:03.051Z,22.33
2019-01-09T04:38:33.729Z,20.57
2019-01-09T04:41:04.523Z,20.80
2019-01-09T04:43:34.827Z,20.63
2019-01-09T04:46:06.366Z,21.57
2019-01-09T04:48:36.891Z,23.93
2019-01-09T04:51:07.302Z,19.23
2019-01-09T04:53:37.770Z,20.70
2019-01-09T04:56:08.673Z,21.53
2019-01-09T04:58:38.968Z,22.63
2019-01-09T05:01:09.314Z,32.20
2019-01-09T05:03:40.129Z,28.17
2019-01-09T05:06:10.508Z,22.53
2019-01-09T05:08:41.234Z,19.50
2019-01-09T05:11:11.689Z,19.97
2019-01-09T05:13:42.028Z,21.90
2019-01-09T05:16:12.443Z,21.47
2019-01-09T05:18:42.739Z,18.17
2019-01-09T05:21:13.257Z,21.57
2019-01-09T05:23:43.915Z,19.87
2019-01-09T05:26:14.252Z,18.90
2019-01-09T05:28:44.530Z,19.07
2019-01-09T05:31:15.132Z,22.60
2019-01-09T05:33:45.767Z,25.67
2019-01-09T05:36:16.276Z,29.90
2019-01-09T05:38:47.118Z,35.37
2019-01-09T05:41:17.592Z,34.43
2019-01-09T05:43:48.092Z,26.03
2019-01-09T05:46:18.412Z,21.00
2019-01-09T05:48:48.722Z,20.83
2019-01-09T05:51:19.490Z,21.53
2019-01-09T05:53:50.053Z,19.87
2019-01-09T05:56:20.371Z,17.30
2019-01-09T05:58:51.070Z,18.47
2019-01-09T06:01:21.684Z,17.13
2019-01-09T06:03:51.971Z,18.67
2019-01-09T06:06:22.903Z,22.27
2019-01-09T06:08:53.681Z,21.90
2019-01-09T06:11:24.139Z,21.27
2019-01-09T06:13:54.467Z,23.77
2019-01-09T06:16:24.792Z,26.27
2019-01-09T06:18:55.476Z,29.33
2019-01-09T06:21:26.197Z,30.93
2019-01-09T06:23:56.489Z,33.57
2019-01-09T06:26:27.306Z,46.90
2019-01-09T06:28:57.992Z,35.30
2019-01-09T06:31:29.299Z,33.77
2019-01-09T06:33:59.764Z,35.93
2019-01-09T06:36:30.634Z,33.97
2019-01-09T06:39:00.977Z,36.60
2019-01-09T06:41:31.612Z,36.70
2019-01-09T06:44:02.183Z,39.07
2019-01-09T06:46:33.316Z,45.00
2019-01-09T06:49:03.694Z,42.77
2019-01-09T06:51:34.174Z,40.00
2019-01-09T06:54:04.665Z,42.93
2019-01-09T06:56:36.315Z,43.47
2019-01-09T06:59:06.580Z,37.97
2019-01-09T07:01:37.091Z,37.60
2019-01-09T07:04:07.710Z,33.27
2019-01-09T07:06:38.017Z,33.23
2019-01-09T07:09:08.367Z,31.53
2019-01-09T07:11:39.042Z,33.83
2019-01-09T07:14:10.314Z,32.13
2019-01-09T07:16:40.923Z,34.57
2019-01-09T07:19:11.486Z,31.47
2019-01-09T07:21:45.678Z,25.37
2019-01-09T07:24:15.420Z,23.33
2019-01-09T07:26:45.735Z,31.50
2019-01-09T07:29:16.323Z,24.03
2019-01-09T07:31:46.877Z,107.47
2019-01-09T07:34:17.202Z,33.53
2019-01-09T07:36:47.494Z,23.50
2019-01-09T07:39:17.908Z,25.43
2019-01-09T07:41:48.251Z,17.90
2019-01-09T07:44:18.568Z,21.37
2019-01-09T07:46:49.545Z,21.57
2019-01-09T07:49:19.853Z,20.63
2019-01-09T07:51:50.694Z,21.00
2019-01-09T07:54:21.102Z,19.80
2019-01-09T07:56:51.851Z,19.77
2019-01-09T07:59:22.493Z,19.07
2019-01-09T08:01:53.018Z,21.53
2019-01-09T08:04:23.325Z,19.63
2019-01-09T08:06:54.030Z,18.90
2019-01-09T08:09:24.430Z,18.43
2019-01-09T08:11:54.691Z,16.83
2019-01-09T08:14:25.109Z,17.30
2019-01-09T08:16:55.783Z,18.03
2019-01-09T08:19:26.247Z,14.37
2019-01-09T08:21:56.649Z,16.03
2019-01-09T08:24:27.094Z,15.93
2019-01-09T08:26:57.727Z,16.17
2019-01-09T08:29:29.485Z,17.10
2019-01-09T08:31:59.803Z,17.60
2019-01-09T08:34:30.459Z,19.67
2019-01-09T08:37:01.060Z,39.90
2019-01-09T08:39:31.400Z,40.70
2019-01-09T08:42:01.964Z,45.80
2019-01-09T08:44:32.735Z,44.07
2019-01-09T08:47:03.180Z,45.83
2019-01-09T08:49:33.491Z,44.10
2019-01-09T08:52:04.405Z,50.57
2019-01-09T08:54:34.784Z,51.13
2019-01-09T08:57:05.163Z,48.57
2019-01-09T08:59:35.825Z,42.93
2019-01-09T09:02:06.316Z,41.07
2019-01-09T09:04:36.625Z,44.30
2019-01-09T09:07:07.514Z,40.20
2019-01-09T09:09:38.146Z,36.97
2019-01-09T09:12:08.419Z,39.93
2019-01-09T09:14:39.106Z,39.63
2019-01-09T09:17:09.832Z,35.10
2019-01-09T09:19:40.139Z,34.43
2019-01-09T09:22:10.799Z,35.57
2019-01-09T09:24:41.141Z,34.90
2019-01-09T09:27:11.671Z,43.13
2019-01-09T09:29:42.298Z,39.60
2019-01-09T09:32:12.695Z,33.57
2019-01-09T09:34:43.392Z,32.53
2019-01-09T09:37:14.149Z,32.43
2019-01-09T09:39:44.530Z,34.20
2019-01-09T09:42:14.911Z,31.07
2019-01-09T09:44:45.463Z,33.03
2019-01-09T09:47:15.811Z,29.57
2019-01-09T09:49:46.217Z,30.27
2019-01-09T09:52:16.889Z,31.60
2019-01-09T09:54:47.193Z,30.57
2019-01-09T09:57:17.894Z,29.33
2019-01-09T09:59:48.180Z,28.63
2019-01-09T10:02:18.601Z,29.10
2019-01-09T10:04:49.299Z,33.20
2019-01-09T10:07:19.630Z,30.77
2019-01-09T10:09:49.978Z,30.80
2019-01-09T10:12:20.686Z,30.20
2019-01-09T10:14:50.981Z,32.00
2019-01-09T10:17:21.450Z,30.27
2019-01-09T10:19:52.130Z,30.63
2019-01-09T10:22:22.591Z,27.90
2019-01-09T10:24:52.894Z,26.40
2019-01-09T10:27:23.478Z,26.97
2019-01-09T10:29:53.861Z,28.77
2019-01-09T10:32:24.515Z,29.20
2019-01-09T10:34:54.988Z,29.17
2019-01-09T10:37:25.302Z,24.27
2019-01-09T10:39:55.716Z,28.67
2019-01-09T10:42:26.038Z,27.80
2019-01-09T10:44:56.373Z,26.90
2019-01-09T10:47:27.813Z,26.27
2019-01-09T10:49:58.211Z,26.77
2019-01-09T10:52:28.565Z,24.13
2019-01-09T10:54:59.227Z,27.50
2019-01-09T10:57:30.072Z,27.93
2019-01-09T11:00:00.361Z,28.40
2019-01-09T11:02:31.156Z,26.83
2019-01-09T11:05:01.467Z,28.93
2019-01-09T11:07:32.202Z,29.87
2019-01-09T11:10:02.543Z,30.50
2019-01-09T11:12:32.867Z,27.37
2019-01-09T11:15:03.555Z,29.00
2019-01-09T11:17:34.254Z,33.13
2019-01-09T11:20:05.721Z,32.33
2019-01-09T11:22:36.233Z,32.80
2019-01-09T11:25:08.497Z,34.20
2019-01-09T11:27:38.980Z,28.40
2019-01-09T11:30:12.009Z,29.00
2019-01-09T11:32:42.608Z,32.00
2019-01-09T11:35:14.360Z,32.20
2019-01-09T11:37:44.741Z,32.27
2019-01-09T11:40:16.518Z,32.50
2019-01-09T11:42:47.083Z,33.57
2019-01-09T11:45:18.817Z,32.03
2019-01-09T11:48:42.560Z,32.93
2019-01-09T11:51:12.885Z,30.77
2019-01-09T11:53:43.561Z,30.73
2019-01-09T11:56:13.829Z,31.67
2019-01-09T11:58:44.174Z,31.77
2019-01-09T12:01:14.828Z,33.93
2019-01-09T12:03:45.248Z,34.50
2019-01-09T12:06:15.625Z,33.40
2019-01-09T12:08:45.935Z,33.67
2019-01-09T12:11:16.231Z,32.83
2019-01-09T12:13:46.883Z,37.80
2019-01-09T12:16:17.250Z,33.07
2019-01-09T12:19:23.741Z,33.30
2019-01-09T12:21:54.156Z,32.27
2019-01-09T12:24:24.545Z,28.30
2019-01-09T12:26:54.873Z,27.37
2019-01-09T12:29:25.589Z,30.17
2019-01-09T12:31:56.414Z,23.70
2019-01-09T12:34:26.698Z,22.20
2019-01-09T12:36:57.685Z,21.00
2019-01-09T12:39:27.978Z,22.60
2019-01-09T12:41:58.527Z,21.67
2019-01-09T12:44:29.077Z,21.30
2019-01-09T12:46:59.404Z,22.37
2019-01-09T12:49:30.135Z,21.13
2019-01-09T12:52:00.870Z,20.20
2019-01-09T12:54:31.187Z,22.47
2019-01-09T12:57:01.697Z,21.53
2019-01-09T12:59:32.463Z,21.00
2019-01-09T13:02:02.867Z,22.63
2019-01-09T13:04:33.318Z,22.20
2019-01-09T13:07:04.114Z,21.37
2019-01-09T13:09:34.421Z,21.80
2019-01-09T13:12:04.824Z,21.73
2019-01-09T13:14:35.379Z,24.23
2019-01-09T13:17:11.867Z,23.37
2019-01-09T13:19:37.878Z,22.50
2019-01-09T13:22:08.634Z,20.77
2019-01-09T13:24:39.318Z,23.30
2019-01-09T13:27:09.597Z,22.53
2019-01-09T13:29:40.264Z,20.00
2019-01-09T13:32:11.034Z,20.93
2019-01-09T13:34:41.384Z,22.43
2019-01-09T13:37:12.099Z,22.60
2019-01-09T13:39:42.509Z,26.27
2019-01-09T13:42:12.799Z,25.57
2019-01-09T13:44:43.381Z,23.17
2019-01-09T13:47:13.772Z,22.57
2019-01-09T13:49:44.513Z,23.53
2019-01-09T13:52:15.183Z,22.70
2019-01-09T13:54:45.788Z,21.70
2019-01-09T13:57:16.442Z,17.23
2019-01-09T13:59:47.007Z,14.43
2019-01-09T14:02:17.294Z,14.00
2019-01-09T14:04:47.826Z,15.67
2019-01-09T14:07:18.506Z,13.73
2019-01-09T14:09:48.826Z,13.07
2019-01-09T14:12:19.210Z,13.40
2019-01-09T14:14:49.745Z,14.23
2019-01-09T14:17:20.501Z,13.00
2019-01-09T14:19:51.154Z,13.40
2019-01-09T14:22:21.490Z,14.93
2019-01-09T14:24:51.887Z,14.00
2019-01-09T14:27:22.404Z,13.27
2019-01-09T14:29:52.708Z,14.10
2019-01-09T14:32:23.039Z,16.87
2019-01-09T14:34:53.775Z,16.77
2019-01-09T14:37:24.106Z,17.17
2019-01-09T14:39:54.482Z,17.83
2019-01-09T14:42:25.172Z,17.93
2019-01-09T14:44:55.737Z,20.17
2019-01-09T14:47:26.218Z,16.40
2019-01-09T14:49:56.627Z,21.50
2019-01-09T14:52:27.025Z,16.87
2019-01-09T14:54:57.606Z,14.37
2019-01-09T14:57:28.046Z,15.20
2019-01-09T14:59:58.393Z,13.40
2019-01-09T15:02:29.098Z,12.97
2019-01-09T15:04:59.711Z,14.93
2019-01-09T15:07:30.319Z,18.70
2019-01-09T15:10:00.663Z,15.27
2019-01-09T15:12:31.364Z,14.40
2019-01-09T15:15:01.740Z,14.17
2019-01-09T15:17:32.430Z,13.27
2019-01-09T15:20:02.805Z,14.67
2019-01-09T15:22:33.645Z,12.30
2019-01-09T15:25:05.656Z,12.47
2019-01-09T15:27:35.976Z,11.80
2019-01-09T15:30:09.905Z,12.37
2019-01-09T15:32:40.265Z,12.57
2019-01-09T15:35:11.340Z,11.57
2019-01-09T15:37:41.692Z,12.87
2019-01-09T15:40:15.416Z,11.97
2019-01-09T15:42:45.648Z,13.10
2019-01-09T15:45:16.287Z,12.77
2019-01-09T15:47:46.788Z,11.90
2019-01-09T15:50:18.678Z,11.33
2019-01-09T15:52:49.343Z,14.60
2019-01-09T15:55:19.760Z,13.23
2019-01-09T15:57:52.621Z,12.17
2019-01-09T16:00:29.063Z,13.60
2019-01-09T16:02:59.569Z,12.03
2019-01-09T16:05:30.140Z,11.73
2019-01-09T16:08:01.031Z,12.93
2019-01-09T16:10:31.355Z,12.13
2019-01-09T16:13:01.763Z,12.47
2019-01-09T16:15:32.470Z,10.73
2019-01-09T16:18:02.781Z,12.33
2019-01-09T16:20:33.460Z,10.60
2019-01-09T16:23:04.296Z,11.73
2019-01-09T16:25:34.880Z,11.30
2019-01-09T16:28:06.364Z,12.37
2019-01-09T16:31:39.301Z,11.17
2019-01-09T16:34:09.592Z,12.40
2019-01-09T16:36:40.532Z,10.53
2019-01-09T16:39:11.555Z,10.97
2019-01-09T16:41:41.913Z,10.97
2019-01-09T16:44:12.547Z,12.93
2019-01-09T16:46:43.091Z,11.50
2019-01-09T16:49:13.453Z,12.10
2019-01-09T16:51:44.167Z,12.03
2019-01-09T16:54:14.875Z,11.57
2019-01-09T16:56:45.555Z,12.43
2019-01-09T16:59:15.849Z,12.93
2019-01-09T17:01:46.632Z,12.77
2019-01-09T17:04:17.001Z,12.53
2019-01-09T17:06:47.787Z,13.83
2019-01-09T17:09:18.087Z,11.77
2019-01-09T17:11:48.975Z,12.77
2019-01-09T17:14:19.624Z,14.10
2019-01-09T17:16:50.330Z,12.63
2019-01-09T17:19:21.208Z,11.77
2019-01-09T17:21:51.983Z,11.50
2019-01-09T17:24:22.297Z,12.67
2019-01-09T17:26:53.493Z,12.53
2019-01-09T17:29:24.240Z,12.60
2019-01-09T17:31:54.523Z,12.57
2019-01-09T17:34:24.822Z,12.17
2019-01-09T17:36:55.708Z,11.80
2019-01-09T17:39:26.066Z,13.10
2019-01-09T17:41:56.518Z,10.60
2019-01-09T17:44:27.430Z,11.23
2019-01-09T17:46:58.454Z,10.13
2019-01-09T17:49:29.261Z,12.47
2019-01-09T17:52:00.010Z,12.77
2019-01-09T17:54:30.910Z,12.23
2019-01-09T17:57:01.491Z,10.50
2019-01-09T17:59:33.311Z,10.47
2019-01-09T18:02:03.973Z,8.17
2019-01-09T18:04:34.738Z,9.87
2019-01-09T18:07:05.364Z,10.93
2019-01-09T18:09:35.639Z,10.73
2019-01-09T18:12:06.941Z,11.57
2019-01-09T18:14:37.548Z,11.23
2019-01-09T18:17:08.068Z,10.77
2019-01-09T18:19:38.628Z,10.53
2019-01-09T18:22:09.277Z,9.90
2019-01-09T18:24:39.746Z,10.50
2019-01-09T18:27:10.097Z,10.20
2019-01-09T18:29:40.807Z,10.70
2019-01-09T18:32:37.424Z,10.37
2019-01-09T18:35:44.378Z,10.63
2019-01-09T18:38:55.828Z,12.53
2019-01-09T18:42:22.372Z,15.00
2019-01-09T18:45:04.577Z,13.03
2019-01-09T18:48:14.450Z,12.97
2019-01-09T18:51:28.739Z,12.73
2019-01-09T18:53:59.517Z,13.47
2019-01-09T18:56:29.896Z,12.17
2019-01-09T18:59:00.350Z,16.73
2019-01-09T19:01:31.573Z,13.83
2019-01-09T19:04:01.938Z,16.07
2019-01-09T19:06:35.504Z,19.93
2019-01-09T19:09:07.430Z,26.10
2019-01-09T19:11:38.095Z,20.10
2019-01-09T19:14:08.499Z,31.93
2019-01-09T19:16:39.042Z,16.83
2019-01-09T19:19:09.356Z,24.90
2019-01-09T19:21:39.963Z,20.20
2019-01-09T19:24:10.468Z,28.87
2019-01-09T19:26:40.800Z,20.10
2019-01-09T19:29:13.095Z,21.60
2019-01-09T19:31:43.902Z,19.37
2019-01-09T19:34:14.204Z,21.43
2019-01-09T19:36:45.113Z,29.93
2019-01-09T19:39:15.580Z,31.97
2019-01-09T19:41:46.044Z,20.90
2019-01-09T19:44:16.424Z,34.20
2019-01-09T19:46:46.750Z,47.10
2019-01-09T19:49:17.499Z,30.33
2019-01-09T19:51:47.863Z,33.63
2019-01-09T19:54:18.299Z,38.17
2019-01-09T19:56:49.029Z,19.57
2019-01-09T19:59:19.847Z,28.13
2019-01-09T20:01:50.290Z,48.10
2019-01-09T20:04:21.124Z,36.93
2019-01-09T20:06:51.793Z,22.67
2019-01-09T20:09:22.306Z,16.23
2019-01-09T20:11:53.018Z,17.17
2019-01-09T20:14:23.659Z,18.07
2019-01-09T20:16:54.559Z,14.90
2019-01-09T20:19:25.248Z,17.47
2019-01-09T20:21:55.681Z,14.57
2019-01-09T20:24:26.603Z,14.00
2019-01-09T20:26:57.311Z,16.17
2019-01-09T20:29:27.615Z,15.17
2019-01-09T20:31:57.996Z,18.10
2019-01-09T20:34:28.754Z,19.20
2019-01-09T20:37:00.170Z,17.73
2019-01-09T20:39:30.713Z,25.97
2019-01-09T20:42:01.467Z,21.37
2019-01-09T20:44:31.878Z,29.43
2019-01-09T20:47:02.558Z,22.13
2019-01-09T20:49:33.019Z,23.13
2019-01-09T20:52:04.810Z,23.90
2019-01-09T20:54:35.412Z,22.03
2019-01-09T20:57:07.687Z,22.87
2019-01-09T20:59:37.977Z,21.93
2019-01-09T21:02:08.627Z,21.57
2019-01-09T21:04:39.168Z,21.67
2019-01-09T21:07:09.698Z,21.33
2019-01-09T21:09:40.698Z,20.00
2019-01-09T21:12:11.328Z,20.33
2019-01-09T21:14:41.772Z,20.57
2019-01-09T21:17:12.452Z,21.83
2019-01-09T21:19:42.820Z,18.83
2019-01-09T21:22:15.038Z,19.60
2019-01-09T21:24:45.536Z,17.87
2019-01-09T21:27:15.854Z,19.30
2019-01-09T21:29:46.547Z,20.10
2019-01-09T21:32:17.111Z,20.70
2019-01-09T21:34:47.496Z,18.57
2019-01-09T21:37:18.185Z,20.03
2019-01-09T21:39:48.925Z,18.53
2019-01-09T21:42:20.228Z,21.77
2019-01-09T21:44:50.896Z,20.13
2019-01-09T21:47:21.797Z,19.17
2019-01-09T21:49:52.281Z,19.30
2019-01-09T21:52:22.664Z,19.33
2019-01-09T21:54:53.340Z,19.50
2019-01-09T21:57:23.638Z,19.60
2019-01-09T21:59:53.931Z,20.57
2019-01-09T22:02:24.480Z,18.97
2019-01-09T22:04:54.789Z,18.30
2019-01-09T22:07:25.196Z,19.27
2019-01-09T22:09:55.852Z,19.87
2019-01-09T22:12:27.448Z,19.00
2019-01-09T22:14:57.748Z,19.00
2019-01-09T22:17:28.461Z,19.13
2019-01-09T22:19:59.202Z,20.97
2019-01-09T22:22:29.731Z,18.57
2019-01-09T22:25:00.023Z,18.23
2019-01-09T22:27:30.326Z,16.73
2019-01-09T22:30:01.308Z,17.97
2019-01-09T22:32:31.714Z,17.23
2019-01-09T22:35:02.063Z,17.93
2019-01-09T22:37:32.802Z,20.20
2019-01-09T22:40:03.993Z,27.10
2019-01-09T22:42:34.229Z,29.63
2019-01-09T22:45:06.331Z,31.90
2019-01-09T22:47:36.980Z,30.60
2019-01-09T22:50:09.463Z,29.53
2019-01-09T22:52:39.987Z,29.83
2019-01-09T22:55:11.146Z,30.23
2019-01-09T22:57:41.530Z,28.40
2019-01-09T23:00:59.878Z,29.50
2019-01-09T23:03:31.937Z,30.23
2019-01-09T23:06:02.550Z,31.33
2019-01-09T23:08:33.232Z,31.27
2019-01-09T23:11:03.587Z,30.37
2019-01-09T23:13:34.319Z,31.67
2019-01-09T23:16:05.609Z,33.00
2019-01-09T23:18:36.066Z,33.90
2019-01-09T23:21:06.774Z,33.47
2019-01-09T23:23:37.318Z,30.87
2019-01-09T23:26:07.928Z,29.80
2019-01-09T23:28:38.343Z,30.47
2019-01-09T23:31:09.609Z,27.67
2019-01-09T23:33:40.021Z,31.67
2019-01-09T23:36:10.903Z,28.77
2019-01-09T23:38:41.205Z,30.60
2019-01-09T23:41:12.047Z,31.63
2019-01-09T23:43:42.795Z,31.80
2019-01-09T23:46:13.341Z,29.87
2019-01-09T23:48:43.641Z,30.43
2019-01-09T23:51:14.447Z,32.03
2019-01-09T23:53:44.975Z,29.57
2019-01-09T23:56:15.316Z,29.37
2019-01-09T23:58:45.930Z,29.13
